Air Sicilia Virtual Airways - Route

Air Sicilia Virtual Airways - SIC089L

( ES ) GCFV
Fuerteventura Airport
FUERTEVENTURA ISLAND ( FUE )
plane_to ( PT ) LPFR
Faro Airport
FARO ( FAO )
IFR World Tour 2018 IVAO - LEG: 49

AIRPORT NEAR NAVIGATION AIDS

Type Name Frequency
VOR-DME Fuerteventura 114100 KHZ

METAR / TAF
GCFV 230200Z AUTO 35007KT 9999 NCD 23/20 Q1016
GCFV 230034Z 2300/2321 01011KT 9999 FEW020 TX31/2314Z TN23/2305Z

RUNWAY INFORMATION

Runway Runway length Runway width Runway elevation Runway displaced threshold Runway heading
01 7874 148 37 0 2
19 7874 148 75 0 182

AIRPORT FREQUENCIES

Type Name Frequency
APP CANARIAS A 129.3 MHZ
ATIS ATIS 118.65 MHZ
GND GND 121.7 MHZ
TWR TWR 118.5 MHZ

AIRPORT NEAR NAVIGATION AIDS

Type Name Frequency
NDB Faro 332 KHZ
VOR-DME Faro 112800 KHZ

METAR / TAF
LPFR 230200Z 02006KT CAVOK 24/11 Q1019

RUNWAY INFORMATION

Runway Runway length Runway width Runway elevation Runway displaced threshold Runway heading
10 8169 148 24 148 100
28 8169 148 18 148 280

AIRPORT FREQUENCIES

Type Name Frequency
APP APP 119.4 MHZ
ATIS ATIS 124.2 MHZ
GND GND 118.575 MHZ
TWR TWR 118.2 MHZ

Flightplan

KORAL UG5 SONSO UN871 PISIG UT100 XULIM UL27 VJF UN10 SVL UM744 ALAGU

Air Sicilia Virtual Airways Fleets

AVAILABLE AIRCRAFTS for route at this time in Fuerteventura Airport
A320 - Airbus A320
( UE ) AIRBUS

Aircraft in fleet: 9

A321 - Airbus A321
( UE ) AIRBUS

Aircraft in fleet: 6

B738 - Boeing 737-800 NGX
( US ) BOEING

Aircraft in fleet: 13

BE58 - Beechcraft Baron 58
( US ) Beechcraft

Aircraft in fleet: 4

593 NM

Distance in nautical miles.

€ 220,00

Ticket price for this flight.

Nr. 49

Leg



07-08-2018
Aerosoft Professional Flight Planner PFPX

PFPX - Professional Flight Planner X - è un nuovo ed innovativo strumento di pianificazione del volo sviluppato da piloti e dispatcher del mondo reale. È un'aggiunta preziosa e realistica alla tua esperienza di simulaz ....


19-07-2018
Aerosoft Oslo X

L'Aeroporto di Oslo-Gardermoen (IATA: OSL, ICAO: ENGM) è il principale aeroporto norvegese e il 19° in Europa, è situato vicino alla cittadina di Ullensaker nella contea di Akershus e serve la capitale Oslo. Ha sostit ....


21-06-2018
Aerosoft Malpensa Professional P3Dv4

L'Aeroporto di Milano-Malpensa (IATA: MXP, ICAO: LIMC) è un aeroporto italiano situato nella provincia di Varese in Lombardia, ma considerato come il principale aeroporto di Milano.

È il secondo aeroporto ital ....


06-06-2018
1° Raduno Air Sicilia Virtual - parla il C.E.O.

Grande successo per il 1° Raduno di Compagnia dell'Air Sicilia Virtual, che ha visto i membri della Crew presenti il 4 giugno 2018 a Thiene ( VI ) , cimentarsi dal vivo con le reali ....


24-05-2018
Aerosoft Airport Rome XP

Tra le nostre recensioni non poteva mancare certo la nuova uscita Aerosoft per X-Plane, stiamo parlando di Airport Rome XP, finalmente un Add-on pay completo dell'Aeroporto di Roma Fiumicino per gli utilizzatori del simu ....